Time;durP1;ratioP1;P1;durP2;ratioP2;P2;SDS_P1;SDS_P2;PMS_P1;PMS_P2;Temp;Humidity;BMP_temperature;BMP_pressure;BME280_temperature;BME280_humidity;BME280_pressure;Samples;Min_cycle;Max_cycle;Signal;HPM_P1;HPM_P2
2023/03/26 00:02:24;;;;;;;9.90;6.90;;;;;;;;;;80053;255;3032152;-31
2023/03/26 00:05:05;;;;;;;11.20;7.20;;;;;;;;;;80806;255;3011732;-31
2023/03/26 00:07:41;;;;;;;11.60;8.00;;;;;;;;;;80086;255;3036197;-31
2023/03/26 00:10:18;;;;;;;12.70;8.50;;;;;;;;;;80051;255;3027947;-31
2023/03/26 00:12:53;;;;;;;12.70;8.50;;;;;;;;;;80069;255;3031055;-31
2023/03/26 00:15:32;;;;;;;14.60;9.70;;;;;;;;;;80784;255;3011476;-31
2023/03/26 00:18:08;;;;;;;16.00;11.00;;;;;;;;;;80080;255;3031382;-31
2023/03/26 00:20:45;;;;;;;16.60;11.10;;;;;;;;;;80057;255;3028117;-31
2023/03/26 00:23:21;;;;;;;16.40;10.50;;;;;;;;;;80120;255;3027802;-31
2023/03/26 00:26:02;;;;;;;16.20;11.30;;;;;;;;;;80045;255;3031393;-31
2023/03/26 00:28:42;;;;;;;18.90;12.60;;;;;;;;;;80092;255;3031963;-31
2023/03/26 00:31:20;;;;;;;19.40;12.40;;;;;;;;;;80060;255;3028088;-31
2023/03/26 00:33:58;;;;;;;19.70;12.80;;;;;;;;;;80091;255;3027977;-31
2023/03/26 00:36:36;;;;;;;22.50;13.70;;;;;;;;;;80055;255;3031265;-31
2023/03/26 00:39:14;;;;;;;23.40;14.80;;;;;;;;;;80068;255;3031624;-31
2023/03/26 00:41:53;;;;;;;25.20;15.50;;;;;;;;;;80094;255;3028742;-31
2023/03/26 00:44:29;;;;;;;25.00;15.30;;;;;;;;;;80114;255;3027674;-31
2023/03/26 00:47:06;;;;;;;24.80;15.80;;;;;;;;;;80121;255;3030559;-31
2023/03/26 00:49:42;;;;;;;26.00;16.00;;;;;;;;;;80087;255;3031434;-31
2023/03/26 00:52:19;;;;;;;26.00;15.80;;;;;;;;;;80083;255;3028765;-31
2023/03/26 00:54:58;;;;;;;27.10;15.80;;;;;;;;;;80107;255;3027209;-31
2023/03/26 00:57:36;;;;;;;28.20;17.00;;;;;;;;;;80055;255;3030150;-31
2023/03/26 01:00:19;;;;;;;28.40;17.10;;;;;;;;;;80125;255;3031054;-31
2023/03/26 01:02:57;;;;;;;29.10;17.70;;;;;;;;;;80063;255;3028071;-31
2023/03/26 01:05:54;;;;;;;27.50;16.50;;;;;;;;;;80076;255;3027318;-31
2023/03/26 01:08:35;;;;;;;30.90;17.00;;;;;;;;;;80038;255;3031138;-31
2023/03/26 01:11:14;;;;;;;30.20;17.10;;;;;;;;;;80072;255;3031670;-31
2023/03/26 01:13:55;;;;;;;30.80;17.00;;;;;;;;;;80106;255;3028298;-31
2023/03/26 01:16:36;;;;;;;30.00;17.70;;;;;;;;;;80112;255;3027377;-31
2023/03/26 01:19:29;;;;;;;30.20;17.00;;;;;;;;;;80087;255;3036893;-31
2023/03/26 01:22:08;;;;;;;30.40;17.40;;;;;;;;;;80078;255;3031072;-31
2023/03/26 01:24:51;;;;;;;28.80;16.80;;;;;;;;;;80066;255;3028933;-31
2023/03/26 01:27:38;;;;;;;31.90;16.90;;;;;;;;;;80091;255;3027119;-31
2023/03/26 01:30:21;;;;;;;30.20;17.00;;;;;;;;;;80048;255;3031103;-31
2023/03/26 01:33:05;;;;;;;31.60;16.50;;;;;;;;;;80084;255;3031784;-31
2023/03/26 01:35:44;;;;;;;;;;;;;;;;;;80107;255;3028491;-31
2023/03/26 01:38:30;;;;;;;30.20;15.90;;;;;;;;;;80085;244;3027073;-31
2023/03/26 01:41:13;;;;;;;30.30;16.40;;;;;;;;;;80103;255;3031191;-31
2023/03/26 01:43:58;;;;;;;29.20;17.10;;;;;;;;;;80099;255;3032263;-31
2023/03/26 01:46:39;;;;;;;31.30;16.40;;;;;;;;;;80070;255;3028350;-31
2023/03/26 01:49:14;;;;;;;29.50;15.50;;;;;;;;;;80037;255;3029430;-31
2023/03/26 01:51:52;;;;;;;30.50;16.10;;;;;;;;;;80830;244;3011428;-31
2023/03/26 01:54:31;;;;;;;28.30;15.90;;;;;;;;;;80114;255;3031328;-32
2023/03/26 01:57:17;;;;;;;29.70;16.10;;;;;;;;;;80093;255;3031890;-32
2023/03/26 02:00:10;;;;;;;28.70;15.70;;;;;;;;;;80091;255;3029024;-32
2023/03/26 02:03:01;;;;;;;27.90;15.10;;;;;;;;;;80112;255;3027180;-32
2023/03/26 02:05:47;;;;;;;26.70;15.00;;;;;;;;;;80085;255;3031390;-32
2023/03/26 02:08:34;;;;;;;26.70;15.00;;;;;;;;;;80055;255;3031812;-32
2023/03/26 02:11:14;;;;;;;24.90;14.20;;;;;;;;;;80085;263;3028898;-32
2023/03/26 02:13:52;;;;;;;25.70;13.70;;;;;;;;;;80090;255;3027277;-32
2023/03/26 02:16:28;;;;;;;26.40;14.30;;;;;;;;;;80064;255;3030469;-32
2023/03/26 02:19:08;;;;;;;25.00;13.90;;;;;;;;;;80053;255;3031608;-32
2023/03/26 02:21:45;;;;;;;24.70;13.80;;;;;;;;;;80053;255;3028654;-32
2023/03/26 02:24:23;;;;;;;25.10;13.10;;;;;;;;;;80067;255;3028510;-32
2023/03/26 02:27:01;;;;;;;25.90;13.60;;;;;;;;;;80059;255;3031103;-32
2023/03/26 02:29:38;;;;;;;24.00;12.90;;;;;;;;;;80029;255;3031780;-32
2023/03/26 02:32:18;;;;;;;23.80;12.80;;;;;;;;;;80086;255;3028847;-32
2023/03/26 02:34:54;;;;;;;22.30;12.70;;;;;;;;;;80080;255;3027721;-32
2023/03/26 02:37:32;;;;;;;22.20;12.20;;;;;;;;;;80047;255;3031311;-32
2023/03/26 02:40:11;;;;;;;22.90;12.00;;;;;;;;;;80068;255;3032000;-32
2023/03/26 02:42:48;;;;;;;21.70;11.80;;;;;;;;;;80030;255;3028685;-32
2023/03/26 02:45:25;;;;;;;20.20;11.50;;;;;;;;;;80154;255;3027851;-32
2023/03/26 02:48:01;;;;;;;21.00;11.40;;;;;;;;;;80001;255;3031039;-32
2023/03/26 02:50:41;;;;;;;21.30;11.50;;;;;;;;;;79990;255;3032174;-32
2023/03/26 02:53:19;;;;;;;20.80;11.10;;;;;;;;;;80097;255;3028514;-32
2023/03/26 02:55:54;;;;;;;19.10;10.30;;;;;;;;;;80126;255;3027488;-32
2023/03/26 02:58:32;;;;;;;18.40;10.10;;;;;;;;;;80087;255;3031724;-32
2023/03/26 03:01:08;;;;;;;18.90;10.90;;;;;;;;;;80045;255;3032067;-32
2023/03/26 03:03:43;;;;;;;17.70;10.30;;;;;;;;;;80069;255;3027934;-32
2023/03/26 03:06:20;;;;;;;17.80;10.00;;;;;;;;;;80097;255;3027756;-32
2023/03/26 03:08:56;;;;;;;19.10;9.90;;;;;;;;;;80095;255;3030572;-32
2023/03/26 03:11:32;;;;;;;18.20;9.60;;;;;;;;;;80075;255;3036796;-32
2023/03/26 03:14:08;;;;;;;17.50;9.40;;;;;;;;;;79982;245;3028124;-32
2023/03/26 03:16:45;;;;;;;16.10;8.70;;;;;;;;;;80795;255;3011235;-32
2023/03/26 03:19:21;;;;;;;18.10;9.10;;;;;;;;;;80090;255;3027305;-32
2023/03/26 03:22:01;;;;;;;16.80;8.80;;;;;;;;;;80082;255;3038312;-32
2023/03/26 03:24:37;;;;;;;17.10;8.90;;;;;;;;;;80104;255;3031400;-32
2023/03/26 03:27:21;;;;;;;16.00;8.70;;;;;;;;;;80092;255;3028943;-32
2023/03/26 03:29:58;;;;;;;15.10;7.90;;;;;;;;;;80087;255;3027831;-32
2023/03/26 03:32:37;;;;;;;15.30;8.30;;;;;;;;;;80062;255;3030833;-32
2023/03/26 03:35:15;;;;;;;15.00;8.20;;;;;;;;;;80113;256;3033559;-32
2023/03/26 03:37:53;;;;;;;13.70;7.90;;;;;;;;;;80079;255;3027981;-32
2023/03/26 03:40:29;;;;;;;16.00;8.20;;;;;;;;;;80071;255;3027068;-32
2023/03/26 03:43:07;;;;;;;14.20;7.50;;;;;;;;;;80090;255;3031276;-32
2023/03/26 03:45:46;;;;;;;12.80;7.20;;;;;;;;;;80120;255;3032343;-32
2023/03/26 03:48:21;;;;;;;13.70;7.00;;;;;;;;;;80098;255;3028794;-32
2023/03/26 03:50:57;;;;;;;12.60;6.70;;;;;;;;;;80794;255;3011453;-32
2023/03/26 03:53:35;;;;;;;12.80;7.50;;;;;;;;;;80083;255;3027948;-31
2023/03/26 03:56:13;;;;;;;14.00;7.30;;;;;;;;;;80113;255;3030561;-31
2023/03/26 03:58:51;;;;;;;12.20;6.40;;;;;;;;;;80076;255;3031739;-31
2023/03/26 04:01:29;;;;;;;12.00;6.50;;;;;;;;;;80072;255;3028682;-31
2023/03/26 04:04:05;;;;;;;13.80;7.00;;;;;;;;;;80109;243;3027179;-31
2023/03/26 04:06:44;;;;;;;11.90;6.20;;;;;;;;;;80102;255;3030575;-31
2023/03/26 04:09:21;;;;;;;10.90;6.00;;;;;;;;;;80126;255;3032007;-31
2023/03/26 04:12:01;;;;;;;11.50;6.00;;;;;;;;;;80047;255;3028616;-31
2023/03/26 04:14:38;;;;;;;10.90;5.60;;;;;;;;;;80069;255;3027965;-31
2023/03/26 04:17:20;;;;;;;10.60;5.90;;;;;;;;;;80074;256;3030659;-31
2023/03/26 04:19:56;;;;;;;9.90;5.40;;;;;;;;;;80104;255;3031913;-31
2023/03/26 04:22:34;;;;;;;10.40;5.40;;;;;;;;;;80031;255;3028351;-31
2023/03/26 04:25:11;;;;;;;11.00;5.80;;;;;;;;;;80082;255;3027679;-31
2023/03/26 04:27:50;;;;;;;9.60;5.20;;;;;;;;;;80074;255;3030914;-31
2023/03/26 04:30:32;;;;;;;9.50;4.90;;;;;;;;;;80065;255;3031901;-31
2023/03/26 04:33:14;;;;;;;8.90;4.60;;;;;;;;;;80056;255;3028092;-31
2023/03/26 04:35:49;;;;;;;8.90;4.80;;;;;;;;;;80102;255;3027467;-31
2023/03/26 04:38:32;;;;;;;9.90;5.20;;;;;;;;;;80098;255;3030790;-31
2023/03/26 04:41:13;;;;;;;9.00;4.90;;;;;;;;;;80079;255;3031698;-31
2023/03/26 04:43:50;;;;;;;8.80;4.70;;;;;;;;;;80113;255;3033855;-31
2023/03/26 04:46:25;;;;;;;8.20;4.40;;;;;;;;;;80087;255;3027839;-31
2023/03/26 04:49:04;;;;;;;9.10;4.70;;;;;;;;;;80090;255;3031640;-31
2023/03/26 04:51:45;;;;;;;8.90;4.60;;;;;;;;;;80095;255;3031582;-32
2023/03/26 04:54:24;;;;;;;8.40;4.40;;;;;;;;;;80078;255;3028060;-32
2023/03/26 04:57:06;;;;;;;9.40;4.60;;;;;;;;;;80078;255;3027204;-32
2023/03/26 04:59:46;;;;;;;8.20;4.40;;;;;;;;;;80100;255;3031145;-33
2023/03/26 05:02:23;;;;;;;8.60;4.50;;;;;;;;;;80063;255;3031473;-33
2023/03/26 05:05:03;;;;;;;8.00;4.10;;;;;;;;;;80084;255;3028187;-33
2023/03/26 05:07:40;;;;;;;8.50;4.30;;;;;;;;;;80121;255;3027595;-32
2023/03/26 05:10:19;;;;;;;8.00;4.00;;;;;;;;;;80111;255;3030526;-32
2023/03/26 05:12:56;;;;;;;7.90;4.20;;;;;;;;;;80059;255;3031601;-32
2023/03/26 05:15:36;;;;;;;8.10;4.30;;;;;;;;;;80117;255;3027930;-32
2023/03/26 05:18:19;;;;;;;7.60;4.10;;;;;;;;;;80033;255;3027148;-32
2023/03/26 05:20:56;;;;;;;7.90;4.00;;;;;;;;;;80033;255;3030996;-32
2023/03/26 05:23:35;;;;;;;7.70;4.00;;;;;;;;;;80073;255;3034311;-33
2023/03/26 05:26:11;;;;;;;7.00;3.90;;;;;;;;;;80085;255;3028865;-33
2023/03/26 05:28:49;;;;;;;7.60;3.70;;;;;;;;;;80111;255;3027164;-33
2023/03/26 05:31:29;;;;;;;8.30;3.80;;;;;;;;;;80098;265;3031023;-33
2023/03/26 05:34:09;;;;;;;6.60;3.50;;;;;;;;;;80078;255;3031844;-33
2023/03/26 05:36:47;;;;;;;6.80;3.50;;;;;;;;;;80068;255;3028395;-33
2023/03/26 05:39:28;;;;;;;6.80;3.40;;;;;;;;;;80107;255;3028609;-33
2023/03/26 05:42:07;;;;;;;7.70;3.90;;;;;;;;;;80092;255;3030567;-33
2023/03/26 05:44:43;;;;;;;6.60;3.60;;;;;;;;;;80058;255;3031531;-33
2023/03/26 05:47:22;;;;;;;6.70;3.50;;;;;;;;;;80081;255;3029013;-33
2023/03/26 05:50:00;;;;;;;6.90;3.10;;;;;;;;;;80124;255;3027517;-33
2023/03/26 05:52:38;;;;;;;6.80;3.70;;;;;;;;;;80086;255;3031263;-33
2023/03/26 05:55:20;;;;;;;6.00;3.20;;;;;;;;;;80110;255;3038069;-32
2023/03/26 05:57:58;;;;;;;6.30;3.60;;;;;;;;;;80064;256;3028080;-32
2023/03/26 06:00:37;;;;;;;6.40;3.10;;;;;;;;;;80113;255;3027816;-32
2023/03/26 06:03:13;;;;;;;6.30;3.20;;;;;;;;;;80087;255;3031006;-32
2023/03/26 06:05:49;;;;;;;6.10;3.10;;;;;;;;;;80105;255;3031613;-32
2023/03/26 06:08:25;;;;;;;5.70;3.10;;;;;;;;;;80785;255;3011539;-32
2023/03/26 06:11:07;;;;;;;5.90;2.90;;;;;;;;;;80805;255;3011409;-32
2023/03/26 06:13:44;;;;;;;6.60;2.80;;;;;;;;;;80031;255;3028172;-32
2023/03/26 06:16:19;;;;;;;5.70;2.90;;;;;;;;;;80052;255;3027115;-32
2023/03/26 06:19:02;;;;;;;5.50;2.90;;;;;;;;;;80096;255;3030775;-32
2023/03/26 06:21:38;;;;;;;5.70;2.80;;;;;;;;;;80800;255;3013119;-32
2023/03/26 06:24:15;;;;;;;5.80;2.70;;;;;;;;;;80786;255;3012747;-32
2023/03/26 06:26:52;;;;;;;6.00;2.90;;;;;;;;;;80102;255;3031305;-32
2023/03/26 06:29:29;;;;;;;5.60;2.70;;;;;;;;;;80087;255;3028716;-32
2023/03/26 06:32:05;;;;;;;5.70;2.60;;;;;;;;;;80807;255;3011388;-32
2023/03/26 06:34:53;;;;;;;5.30;2.60;;;;;;;;;;80089;255;3028271;-32
2023/03/26 06:37:32;;;;;;;5.60;2.70;;;;;;;;;;80049;255;3011390;-32
2023/03/26 06:40:10;;;;;;;5.60;2.70;;;;;;;;;;80082;255;3030677;-32
2023/03/26 06:42:48;;;;;;;5.20;2.40;;;;;;;;;;80083;275;3031199;-32
2023/03/26 06:45:44;;;;;;;4.90;2.40;;;;;;;;;;80060;263;3028036;-32
2023/03/26 06:48:21;;;;;;;5.10;2.40;;;;;;;;;;80107;255;3029376;-32
2023/03/26 06:51:00;;;;;;;5.00;2.40;;;;;;;;;;80093;255;3032251;-31
2023/03/26 06:53:36;;;;;;;5.50;2.60;;;;;;;;;;80084;255;3033082;-31
2023/03/26 06:56:14;;;;;;;5.40;2.40;;;;;;;;;;80051;255;3028513;-32
2023/03/26 06:58:53;;;;;;;4.60;2.10;;;;;;;;;;80108;255;3027572;-32
2023/03/26 07:01:33;;;;;;;5.10;2.20;;;;;;;;;;80057;255;3030699;-32
2023/03/26 07:04:11;;;;;;;4.80;2.30;;;;;;;;;;80093;255;3031406;-32
2023/03/26 07:06:47;;;;;;;5.60;2.50;;;;;;;;;;80062;255;3036153;-32
2023/03/26 07:09:30;;;;;;;5.50;2.20;;;;;;;;;;80079;248;3027182;-32
2023/03/26 07:12:09;;;;;;;4.80;2.30;;;;;;;;;;80092;255;3030623;-32
2023/03/26 07:14:44;;;;;;;5.50;2.30;;;;;;;;;;80055;255;3031383;-32
2023/03/26 07:17:22;;;;;;;4.30;2.20;;;;;;;;;;80104;251;3029394;-32
2023/03/26 07:19:58;;;;;;;4.70;2.10;;;;;;;;;;80074;255;3027493;-32
2023/03/26 07:22:40;;;;;;;4.60;2.10;;;;;;;;;;80099;255;3030609;-32
2023/03/26 07:25:20;;;;;;;4.50;2.20;;;;;;;;;;80041;255;3034335;-32
2023/03/26 07:28:13;;;;;;;4.60;2.10;;;;;;;;;;80102;255;3028164;-32
2023/03/26 07:31:04;;;;;;;4.50;2.00;;;;;;;;;;80060;255;3027621;-32
2023/03/26 07:33:52;;;;;;;4.70;1.90;;;;;;;;;;79993;255;3031098;-32
2023/03/26 07:36:38;;;;;;;4.70;2.20;;;;;;;;;;80061;255;3031335;-32
2023/03/26 07:39:34;;;;;;;4.80;2.10;;;;;;;;;;80117;255;3028293;-32
2023/03/26 07:42:27;;;;;;;4.70;1.90;;;;;;;;;;80108;255;3027292;-32
2023/03/26 07:45:16;;;;;;;4.30;1.90;;;;;;;;;;80084;255;3031040;-32
2023/03/26 07:47:55;;;;;;;4.40;1.70;;;;;;;;;;80091;255;3037690;-32
2023/03/26 07:50:37;;;;;;;4.40;2.00;;;;;;;;;;80092;255;3028294;-32
2023/03/26 07:53:14;;;;;;;4.50;1.80;;;;;;;;;;80109;255;3027359;-30
2023/03/26 07:56:00;;;;;;;4.50;1.80;;;;;;;;;;80055;255;3030411;-30
2023/03/26 07:59:02;;;;;;;4.10;1.90;;;;;;;;;;80103;255;3031850;-30
2023/03/26 08:01:59;;;;;;;4.10;1.80;;;;;;;;;;80080;255;3030661;-30
2023/03/26 08:05:09;;;;;;;4.40;1.70;;;;;;;;;;80122;255;3027152;-31
2023/03/26 08:08:01;;;;;;;4.20;1.80;;;;;;;;;;80066;255;3030418;-31
2023/03/26 08:10:46;;;;;;;3.70;1.60;;;;;;;;;;80109;255;3031764;-31
2023/03/26 08:13:36;;;;;;;3.80;1.50;;;;;;;;;;80102;255;3028589;-31
2023/03/26 08:16:22;;;;;;;4.30;1.80;;;;;;;;;;80052;255;3027917;-31
2023/03/26 08:19:10;;;;;;;4.20;1.80;;;;;;;;;;80106;255;3031094;-31
2023/03/26 08:21:55;;;;;;;4.30;1.90;;;;;;;;;;80105;255;3031683;-31
2023/03/26 08:24:45;;;;;;;3.40;1.50;;;;;;;;;;80042;255;3028549;-31
2023/03/26 08:27:27;;;;;;;4.00;1.80;;;;;;;;;;80101;255;3027306;-31
2023/03/26 08:30:16;;;;;;;3.90;1.70;;;;;;;;;;80094;255;3031428;-31
2023/03/26 08:33:00;;;;;;;3.90;1.60;;;;;;;;;;80083;255;3031336;-31
2023/03/26 08:35:41;;;;;;;3.50;1.60;;;;;;;;;;80054;255;3027978;-31
2023/03/26 08:38:20;;;;;;;3.70;1.60;;;;;;;;;;80080;255;3027092;-31
2023/03/26 08:41:46;;;;;;;4.10;1.60;;;;;;;;;;80074;255;3031083;-31
2023/03/26 08:45:01;;;;;;;4.50;2.00;;;;;;;;;;80073;255;3031135;-31
2023/03/26 08:48:25;;;;;;;5.20;2.30;;;;;;;;;;80014;255;3028993;-31
2023/03/26 08:51:38;;;;;;;6.30;2.50;;;;;;;;;;80018;255;3027824;-31
2023/03/26 08:54:54;;;;;;;5.40;2.30;;;;;;;;;;79946;255;3031922;-32
2023/03/26 08:58:22;;;;;;;6.70;3.10;;;;;;;;;;80013;255;3032146;-32
2023/03/26 09:01:13;;;;;;;6.20;2.70;;;;;;;;;;80037;255;3028819;-32
2023/03/26 09:04:41;;;;;;;5.20;2.30;;;;;;;;;;80040;255;3026975;-32
2023/03/26 09:08:15;;;;;;;6.60;2.60;;;;;;;;;;80036;255;3031042;-32
2023/03/26 09:11:42;;;;;;;5.50;2.20;;;;;;;;;;80042;255;3031208;-32
2023/03/26 09:14:53;;;;;;;5.60;2.20;;;;;;;;;;80063;255;3028428;-32
2023/03/26 09:18:24;;;;;;;5.30;2.40;;;;;;;;;;80111;255;3027656;-32
2023/03/26 09:21:46;;;;;;;4.80;2.00;;;;;;;;;;80100;255;3032519;-32
2023/03/26 09:25:09;;;;;;;4.80;2.10;;;;;;;;;;80072;255;3031712;-32
2023/03/26 09:28:22;;;;;;;4.60;1.90;;;;;;;;;;79977;256;3028239;-32
2023/03/26 09:31:35;;;;;;;4.70;2.00;;;;;;;;;;80071;255;3027780;-32
2023/03/26 09:34:29;;;;;;;5.00;1.80;;;;;;;;;;80047;255;3030906;-32
2023/03/26 09:37:22;;;;;;;4.30;1.80;;;;;;;;;;80114;255;3031731;-32
2023/03/26 09:40:17;;;;;;;4.80;1.90;;;;;;;;;;80100;255;3028719;-32
2023/03/26 09:43:00;;;;;;;4.50;1.60;;;;;;;;;;80114;255;3027079;-32
2023/03/26 09:45:52;;;;;;;4.70;1.70;;;;;;;;;;80117;255;3031350;-32
2023/03/26 09:49:14;;;;;;;4.00;1.50;;;;;;;;;;80091;255;3031832;-32
2023/03/26 09:52:14;;;;;;;3.90;1.50;;;;;;;;;;80112;255;3028190;-32
2023/03/26 09:55:09;;;;;;;4.10;1.60;;;;;;;;;;80099;255;3028383;-32
2023/03/26 09:58:20;;;;;;;4.00;1.60;;;;;;;;;;80116;255;3030754;-32
2023/03/26 10:01:04;;;;;;;3.90;1.60;;;;;;;;;;80061;255;3036851;-32
2023/03/26 10:03:54;;;;;;;4.90;1.70;;;;;;;;;;80060;263;3028801;-32
2023/03/26 10:06:55;;;;;;;4.20;1.70;;;;;;;;;;80109;255;3027966;-32
2023/03/26 10:09:45;;;;;;;4.40;1.60;;;;;;;;;;80077;255;3030648;-32
2023/03/26 10:12:33;;;;;;;3.60;1.40;;;;;;;;;;80107;255;3031936;-32
2023/03/26 10:15:34;;;;;;;3.20;1.40;;;;;;;;;;80084;302;3028804;-32
2023/03/26 10:18:27;;;;;;;3.50;1.40;;;;;;;;;;80074;255;3028005;-32
2023/03/26 10:21:07;;;;;;;;;;;;;;;;;;80097;255;3030676;-32
2023/03/26 10:24:18;;;;;;;4.20;1.40;;;;;;;;;;80094;255;3031431;-32
2023/03/26 10:27:11;;;;;;;3.40;1.20;;;;;;;;;;80074;255;3028876;-32
2023/03/26 10:30:28;;;;;;;4.00;1.40;;;;;;;;;;80078;255;3028103;-32
2023/03/26 10:33:21;;;;;;;3.50;1.30;;;;;;;;;;80077;255;3031315;-32
2023/03/26 10:36:18;;;;;;;3.10;1.30;;;;;;;;;;80124;255;3031205;-32
2023/03/26 10:39:15;;;;;;;3.50;1.30;;;;;;;;;;80094;255;3028649;-32
2023/03/26 10:42:30;;;;;;;3.40;1.20;;;;;;;;;;80045;244;3034853;-32
2023/03/26 10:45:33;;;;;;;3.70;1.50;;;;;;;;;;80115;255;3031523;-32
2023/03/26 10:48:31;;;;;;;3.20;1.30;;;;;;;;;;80102;255;3032150;-32
2023/03/26 10:51:33;;;;;;;3.10;1.10;;;;;;;;;;80055;255;3028883;-31
2023/03/26 10:54:19;;;;;;;3.40;1.30;;;;;;;;;;80058;255;3027624;-32
2023/03/26 10:57:03;;;;;;;2.30;1.00;;;;;;;;;;80126;255;3031553;-31
2023/03/26 10:59:41;;;;;;;2.60;1.10;;;;;;;;;;80047;255;3032453;-31
2023/03/26 11:02:32;;;;;;;3.00;1.10;;;;;;;;;;80072;255;3028291;-31
2023/03/26 11:05:34;;;;;;;3.50;1.00;;;;;;;;;;80091;255;3027079;-31
2023/03/26 11:08:18;;;;;;;3.00;1.00;;;;;;;;;;80103;255;3031367;-31
2023/03/26 11:11:19;;;;;;;2.90;1.00;;;;;;;;;;80065;255;3031098;-31
2023/03/26 11:14:06;;;;;;;2.60;0.90;;;;;;;;;;80074;255;3028607;-31
2023/03/26 11:16:57;;;;;;;3.00;0.90;;;;;;;;;;80123;255;3027078;-31
2023/03/26 11:19:42;;;;;;;2.70;0.90;;;;;;;;;;80085;255;3031174;-31
2023/03/26 11:22:30;;;;;;;2.40;0.90;;;;;;;;;;80068;255;3031607;-31
2023/03/26 11:25:33;;;;;;;2.20;0.90;;;;;;;;;;80079;255;3028211;-31
2023/03/26 11:28:32;;;;;;;2.80;0.90;;;;;;;;;;80085;244;3029123;-31
2023/03/26 11:31:20;;;;;;;2.20;0.90;;;;;;;;;;80014;255;3030990;-31
2023/03/26 11:34:04;;;;;;;2.90;1.00;;;;;;;;;;80007;255;3031387;-31
2023/03/26 11:36:43;;;;;;;2.10;0.80;;;;;;;;;;80057;255;3028648;-31
2023/03/26 11:39:25;;;;;;;2.30;0.90;;;;;;;;;;80044;255;3027886;-31
2023/03/26 11:42:08;;;;;;;2.00;0.70;;;;;;;;;;80026;255;3031120;-31
2023/03/26 11:44:50;;;;;;;1.80;0.80;;;;;;;;;;80072;255;3031681;-31
2023/03/26 11:47:32;;;;;;;1.90;0.80;;;;;;;;;;80085;256;3028005;-31
2023/03/26 11:50:17;;;;;;;2.00;0.80;;;;;;;;;;80062;255;3027240;-31
2023/03/26 11:52:54;;;;;;;2.20;0.70;;;;;;;;;;80089;255;3030447;-31
2023/03/26 11:55:34;;;;;;;3.70;1.10;;;;;;;;;;80085;256;3031849;-31
2023/03/26 11:58:24;;;;;;;4.20;1.40;;;;;;;;;;80082;248;3028249;-31
2023/03/26 12:01:06;;;;;;;3.80;1.00;;;;;;;;;;80085;256;3027335;-31
2023/03/26 12:03:45;;;;;;;4.10;1.10;;;;;;;;;;80050;255;3031886;-31
2023/03/26 12:06:28;;;;;;;2.80;1.00;;;;;;;;;;80065;255;3031441;-31
2023/03/26 12:09:06;;;;;;;2.60;1.00;;;;;;;;;;80058;255;3028504;-31
2023/03/26 12:11:45;;;;;;;3.60;1.10;;;;;;;;;;80062;255;3027387;-31
2023/03/26 12:14:27;;;;;;;2.90;1.00;;;;;;;;;;80101;255;3039009;-31
2023/03/26 12:17:11;;;;;;;2.90;1.10;;;;;;;;;;80090;255;3031465;-31
2023/03/26 12:19:52;;;;;;;2.80;1.00;;;;;;;;;;80041;255;3028704;-31
2023/03/26 12:22:38;;;;;;;2.90;1.00;;;;;;;;;;80051;255;3026988;-31
2023/03/26 12:25:22;;;;;;;3.00;1.00;;;;;;;;;;80083;255;3030629;-31
2023/03/26 12:28:03;;;;;;;3.50;1.10;;;;;;;;;;80072;255;3031446;-31
2023/03/26 12:30:44;;;;;;;3.40;1.10;;;;;;;;;;80098;255;3028682;-31
2023/03/26 12:33:25;;;;;;;2.40;1.00;;;;;;;;;;80053;255;3027880;-31
2023/03/26 12:36:17;;;;;;;3.00;1.00;;;;;;;;;;80039;256;3031195;-31
2023/03/26 12:38:56;;;;;;;2.70;0.90;;;;;;;;;;80044;255;3031634;-31
2023/03/26 12:42:05;;;;;;;3.00;1.10;;;;;;;;;;80083;255;3028145;-31
2023/03/26 12:45:03;;;;;;;2.50;1.00;;;;;;;;;;80023;255;3033486;-31
2023/03/26 12:47:41;;;;;;;2.30;0.90;;;;;;;;;;80076;255;3031199;-31
2023/03/26 12:50:55;;;;;;;2.90;0.90;;;;;;;;;;80073;255;3031889;-31
2023/03/26 12:53:49;;;;;;;3.10;0.90;;;;;;;;;;80054;255;3028572;-31
2023/03/26 12:56:37;;;;;;;1.90;0.90;;;;;;;;;;80077;255;3027475;-31
2023/03/26 12:59:39;;;;;;;2.30;0.80;;;;;;;;;;80082;255;3030571;-31
2023/03/26 13:02:48;;;;;;;2.00;0.80;;;;;;;;;;80051;255;3031219;-31
2023/03/26 13:05:42;;;;;;;2.00;0.90;;;;;;;;;;80157;255;3035416;-31
2023/03/26 13:08:59;;;;;;;2.00;0.70;;;;;;;;;;80073;255;3027836;-31
2023/03/26 13:11:48;;;;;;;2.30;0.80;;;;;;;;;;80050;255;3030934;-31
2023/03/26 13:14:51;;;;;;;2.20;0.90;;;;;;;;;;80067;255;3031499;-31
2023/03/26 13:17:33;;;;;;;2.10;0.90;;;;;;;;;;80060;255;3028680;-31
2023/03/26 13:20:17;;;;;;;2.10;0.80;;;;;;;;;;80099;255;3027911;-31
2023/03/26 13:23:06;;;;;;;2.50;1.00;;;;;;;;;;80105;255;3031070;-31
2023/03/26 13:25:51;;;;;;;2.20;0.80;;;;;;;;;;80051;255;3031666;-31
2023/03/26 13:28:39;;;;;;;2.20;0.80;;;;;;;;;;80068;255;3028671;-31
2023/03/26 13:31:21;;;;;;;2.20;0.80;;;;;;;;;;80104;255;3027293;-31
2023/03/26 13:34:07;;;;;;;1.90;0.70;;;;;;;;;;80037;255;3031384;-31
2023/03/26 13:36:55;;;;;;;2.40;0.90;;;;;;;;;;80070;255;3031434;-31
2023/03/26 13:39:40;;;;;;;1.90;0.80;;;;;;;;;;80076;255;3027878;-31
2023/03/26 13:42:35;;;;;;;1.90;0.80;;;;;;;;;;80107;255;3027878;-31
2023/03/26 13:45:30;;;;;;;2.00;0.70;;;;;;;;;;80053;255;3030903;-31
2023/03/26 13:48:05;;;;;;;;;;;;;;;;;;80292;255;3031565;-28
2023/03/26 13:50:46;;;;;;;2.40;0.70;;;;;;;;;;80756;255;3012917;-32
2023/03/26 13:53:27;;;;;;;2.40;0.70;;;;;;;;;;80074;256;3028652;-34
2023/03/26 13:56:03;;;;;;;2.30;0.70;;;;;;;;;;80038;256;3028024;-33
2023/03/26 13:58:43;;;;;;;2.40;0.60;;;;;;;;;;80019;255;3031863;-33
2023/03/26 14:01:20;;;;;;;2.40;0.60;;;;;;;;;;80038;256;3031596;-32
2023/03/26 14:04:03;;;;;;;1.40;0.60;;;;;;;;;;80114;256;3029085;-33
2023/03/26 14:06:52;;;;;;;2.00;0.70;;;;;;;;;;80163;256;3034420;-32
2023/03/26 14:09:33;;;;;;;1.90;0.70;;;;;;;;;;80079;255;3031191;-31
2023/03/26 14:12:29;;;;;;;2.10;0.60;;;;;;;;;;80053;255;3031749;-35
2023/03/26 14:15:06;;;;;;;2.00;0.60;;;;;;;;;;80015;256;3029135;-35
2023/03/26 14:17:48;;;;;;;2.10;0.70;;;;;;;;;;80003;255;3028479;-34
2023/03/26 14:21:04;;;;;;;2.30;0.60;;;;;;;;;;80016;256;3031425;-34
2023/03/26 14:24:13;;;;;;;;;;;;;;;;;;80070;256;3032035;-35
2023/03/26 14:27:07;;;;;;;1.80;0.60;;;;;;;;;;79921;256;3028758;-35
2023/03/26 14:29:57;;;;;;;2.80;0.70;;;;;;;;;;80064;256;3027373;-33
2023/03/26 14:32:54;;;;;;;2.00;0.60;;;;;;;;;;80038;256;3032502;-34
2023/03/26 14:35:37;;;;;;;2.10;0.70;;;;;;;;;;80008;255;3031170;-34
2023/03/26 14:38:47;;;;;;;2.30;0.60;;;;;;;;;;78992;255;3028708;-33
2023/03/26 14:41:27;;;;;;;2.20;0.70;;;;;;;;;;80040;255;3027778;-35
2023/03/26 14:44:46;;;;;;;1.60;0.60;;;;;;;;;;80098;255;3031529;-34
2023/03/26 14:47:25;;;;;;;1.70;0.60;;;;;;;;;;79998;255;3031830;-35
2023/03/26 14:50:37;;;;;;;1.90;0.60;;;;;;;;;;80007;256;3028119;-33
2023/03/26 14:53:27;;;;;;;1.40;0.60;;;;;;;;;;80008;255;3027627;-33
2023/03/26 14:56:46;;;;;;;1.70;0.60;;;;;;;;;;80431;255;3031755;-33
2023/03/26 15:00:21;;;;;;;2.10;0.80;;;;;;;;;;79973;255;3031427;-33
2023/03/26 15:03:38;;;;;;;2.00;0.60;;;;;;;;;;79968;247;3031175;-31
2023/03/26 15:07:14;;;;;;;2.80;0.80;;;;;;;;;;80041;244;3027190;-31
2023/03/26 15:10:15;;;;;;;2.70;0.70;;;;;;;;;;79997;255;3030854;-31
2023/03/26 15:13:30;;;;;;;2.40;0.80;;;;;;;;;;80073;255;3031982;-31
2023/03/26 15:17:02;;;;;;;2.20;0.70;;;;;;;;;;79978;256;3028339;-31
2023/03/26 15:20:30;;;;;;;2.60;0.70;;;;;;;;;;80070;271;3027121;-31
2023/03/26 15:23:51;;;;;;;2.30;0.80;;;;;;;;;;80044;255;3030973;-31
2023/03/26 15:27:13;;;;;;;2.60;0.80;;;;;;;;;;80052;255;3032761;-31
2023/03/26 15:30:32;;;;;;;2.70;0.80;;;;;;;;;;80061;255;3028547;-30
2023/03/26 15:33:43;;;;;;;2.60;0.70;;;;;;;;;;80070;255;3027247;-31
2023/03/26 15:37:10;;;;;;;2.40;0.80;;;;;;;;;;80064;255;3031060;-31
2023/03/26 15:40:26;;;;;;;2.40;0.80;;;;;;;;;;80071;255;3031076;-31
2023/03/26 15:43:12;;;;;;;2.50;0.80;;;;;;;;;;80049;255;3028455;-31
2023/03/26 15:46:24;;;;;;;2.60;0.80;;;;;;;;;;80080;255;3027181;-31
2023/03/26 15:49:11;;;;;;;2.30;0.70;;;;;;;;;;80139;255;3037872;-31
2023/03/26 15:51:55;;;;;;;2.00;0.70;;;;;;;;;;80089;255;3032046;-31
2023/03/26 15:54:45;;;;;;;2.60;0.80;;;;;;;;;;80064;264;3028701;-31
2023/03/26 15:57:33;;;;;;;2.10;0.80;;;;;;;;;;80007;251;3027654;-31
2023/03/26 16:00:23;;;;;;;2.80;0.90;;;;;;;;;;80019;255;3030565;-32
2023/03/26 16:03:23;;;;;;;2.80;0.90;;;;;;;;;;79960;255;3031908;-33
2023/03/26 16:06:17;;;;;;;2.10;0.80;;;;;;;;;;80035;255;3028737;-33
2023/03/26 16:09:19;;;;;;;2.80;0.90;;;;;;;;;;79943;255;3027869;-33
2023/03/26 16:11:59;;;;;;;2.30;0.90;;;;;;;;;;79995;255;3030506;-33
2023/03/26 16:14:48;;;;;;;2.10;0.70;;;;;;;;;;80017;255;3031898;-33
2023/03/26 16:17:27;;;;;;;1.70;0.80;;;;;;;;;;79955;255;3028616;-33
2023/03/26 16:20:30;;;;;;;2.30;0.70;;;;;;;;;;80039;256;3027838;-33
2023/03/26 16:23:25;;;;;;;2.60;0.90;;;;;;;;;;80015;255;3031288;-33
2023/03/26 16:26:19;;;;;;;2.30;0.80;;;;;;;;;;79972;255;3032075;-33